Time;durP1;ratioP1;P1;durP2;ratioP2;P2;SDS_P1;SDS_P2;PMS_P1;PMS_P2;Temp;Humidity;BMP_temperature;BMP_pressure;BME280_temperature;BME280_humidity;BME280_pressure;Samples;Min_cycle;Max_cycle;Signal;HPM_P1;HPM_P2
2022/09/09 00:01:46;;;;;;;6.90;3.83;;;;;;;24.76;48.12;100778.44;5062271;28;20147;-73
2022/09/09 00:04:28;;;;;;;8.07;4.13;;;;;;;24.49;48.49;100773.19;5055158;28;20032;-73
2022/09/09 00:06:53;;;;;;;5.15;3.80;;;;;;;24.38;49.35;100776.59;5058937;28;20554;-72
2022/09/09 00:09:25;;;;;;;5.68;3.90;;;;;;;24.39;48.98;100781.00;5062070;28;20032;-73
2022/09/09 00:12:06;;;;;;;9.38;4.40;;;;;;;24.38;48.79;100776.59;5037293;28;20547;-73
2022/09/09 00:14:46;;;;;;;9.02;4.88;;;;;;;23.66;50.69;100774.31;5040052;28;20028;-72
2022/09/09 00:17:36;;;;;;;7.30;4.30;;;;;;;23.52;51.49;100762.72;5055794;28;20476;-72
2022/09/09 00:20:12;;;;;;;12.65;5.00;;;;;;;24.25;49.45;100770.41;5043146;28;20393;-73
2022/09/09 00:22:45;;;;;;;11.50;5.18;;;;;;;24.84;48.32;100762.72;5060038;28;20029;-73
2022/09/09 00:25:16;;;;;;;;;;;;;;;24.39;48.88;100763.13;5066227;28;20039;-73
2022/09/09 00:27:47;;;;;;;8.23;4.70;;;;;;;25.39;46.35;100747.19;5071001;28;20443;-72
2022/09/09 00:30:22;;;;;;;8.80;5.43;;;;;;;25.28;46.01;100755.13;5041382;28;20437;-72
2022/09/09 00:33:08;;;;;;;7.13;4.63;;;;;;;24.76;46.97;100746.38;5066376;28;20064;-72
2022/09/09 00:35:39;;;;;;;10.88;5.20;;;;;;;25.17;46.40;100747.00;5056059;28;20504;-70
2022/09/09 00:38:15;;;;;;;9.90;5.65;;;;;;;24.50;47.68;100757.06;5055050;28;20155;-71
2022/09/09 00:40:53;;;;;;;13.10;6.40;;;;;;;24.65;47.21;100746.31;5039423;28;20041;-72
2022/09/09 00:43:37;;;;;;;8.20;4.80;;;;;;;25.25;45.86;100733.94;5058181;28;20044;-70
2022/09/09 00:46:02;;;;;;;10.77;5.32;;;;;;;24.45;47.82;100739.66;5052105;28;20056;-72
2022/09/09 00:48:39;;;;;;;8.80;5.07;;;;;;;24.61;46.99;100742.09;5060710;28;20091;-73
2022/09/09 00:51:19;;;;;;;10.45;5.55;;;;;;;25.17;46.51;100730.97;5074663;28;20055;-73
2022/09/09 00:54:21;;;;;;;11.55;5.28;;;;;;;24.73;47.50;100730.56;5058116;28;20035;-73
2022/09/09 00:57:08;;;;;;;9.27;5.63;;;;;;;25.09;46.74;100720.84;5056073;28;20475;-71
2022/09/09 00:59:48;;;;;;;13.25;5.43;;;;;;;24.86;47.00;100728.72;5074757;28;20028;-73
2022/09/09 01:02:29;;;;;;;11.27;6.22;;;;;;;25.08;46.54;100737.84;5057168;28;20024;-73
2022/09/09 01:05:17;;;;;;;9.10;5.63;;;;;;;24.83;46.56;100734.28;5056463;28;20033;-73
2022/09/09 01:07:48;;;;;;;9.57;5.22;;;;;;;24.91;46.46;100741.75;5059151;28;20036;-73
2022/09/09 01:10:41;;;;;;;9.50;6.05;;;;;;;25.53;45.03;100740.81;5075544;28;20391;-71
2022/09/09 01:13:15;;;;;;;9.82;5.35;;;;;;;24.75;46.97;100739.31;5090004;28;20020;-73
2022/09/09 01:15:44;;;;;;;9.35;5.82;;;;;;;24.46;47.86;100739.53;5091290;28;20028;-73
2022/09/09 01:18:13;;;;;;;6.82;5.13;;;;;;;24.27;47.34;100747.13;5093780;28;20122;-72
2022/09/09 01:20:41;;;;;;;8.52;5.00;;;;;;;24.48;47.19;100734.94;5092519;28;20081;-73
2022/09/09 01:23:28;;;;;;;10.30;5.28;;;;;;;24.78;47.00;100724.88;5084982;28;20028;-73
2022/09/09 01:26:12;;;;;;;11.48;4.68;;;;;;;25.81;44.68;100714.63;5077046;28;20059;-71
2022/09/09 01:28:40;;;;;;;12.40;4.90;;;;;;;25.52;44.96;100720.38;5084313;28;20032;-71
2022/09/09 01:31:07;;;;;;;6.63;4.70;;;;;;;25.92;44.12;100703.09;5072379;28;20127;-71
2022/09/09 01:33:33;;;;;;;7.80;4.63;;;;;;;25.99;44.20;100706.16;5086667;28;20024;-70
2022/09/09 01:36:21;;;;;;;6.10;4.75;;;;;;;26.16;43.54;100700.38;5091536;28;20544;-71
2022/09/09 01:38:47;;;;;;;8.57;4.55;;;;;;;26.36;43.28;100703.31;5082797;28;20086;-71
2022/09/09 01:41:12;;;;;;;7.38;3.85;;;;;;;26.36;43.02;100703.31;5072751;28;20024;-73
2022/09/09 01:43:38;;;;;;;6.60;3.85;;;;;;;25.67;44.60;100696.09;5085846;28;20470;-71
2022/09/09 01:46:03;;;;;;;9.15;4.80;;;;;;;25.83;44.01;100703.81;5058148;28;20553;-72
2022/09/09 01:48:30;;;;;;;6.53;4.13;;;;;;;26.28;43.58;100698.56;5041635;28;20495;-73
2022/09/09 01:50:55;;;;;;;7.70;4.03;;;;;;;25.51;44.64;100702.63;5057480;28;20032;-73
2022/09/09 01:53:22;;;;;;;6.80;4.55;;;;;;;25.69;44.59;100702.19;5053742;28;20029;-72
2022/09/09 01:56:04;;;;;;;9.63;5.35;;;;;;;26.10;43.55;100697.34;5046491;28;20078;-72
2022/09/09 01:58:45;;;;;;;7.47;3.97;;;;;;;26.03;43.48;100696.97;5034189;28;20032;-73
2022/09/09 02:01:40;;;;;;;5.13;3.95;;;;;;;26.17;42.65;100696.75;5066544;28;20036;-74
2022/09/09 02:04:24;;;;;;;10.48;4.63;;;;;;;25.70;43.68;100698.53;5025503;28;20064;-73
2022/09/09 02:06:55;;;;;;;6.93;4.25;;;;;;;25.78;43.97;100697.97;5051489;28;20035;-73
2022/09/09 02:09:24;;;;;;;12.38;4.63;;;;;;;25.96;43.47;100690.34;5059936;28;20033;-71
2022/09/09 02:11:58;;;;;;;6.50;3.65;;;;;;;26.21;43.52;100690.19;5065578;28;20033;-73
2022/09/09 02:14:30;;;;;;;12.10;4.30;;;;;;;25.85;43.71;100689.34;5065317;28;20032;-72
2022/09/09 02:17:07;;;;;;;8.35;4.07;;;;;;;25.50;44.61;100692.00;5067463;28;20090;-74
2022/09/09 02:19:36;;;;;;;8.70;4.25;;;;;;;26.13;43.39;100681.91;5035239;28;20040;-73
2022/09/09 02:22:03;;;;;;;5.07;3.33;;;;;;;26.15;42.88;100679.09;5034661;28;20025;-71
2022/09/09 02:24:35;;;;;;;8.55;3.65;;;;;;;25.93;43.49;100691.44;5069610;28;20043;-72
2022/09/09 02:27:05;;;;;;;8.05;4.10;;;;;;;25.63;44.06;100683.94;5054451;28;20380;-72
2022/09/09 02:29:35;;;;;;;7.05;4.32;;;;;;;26.47;42.31;100679.22;5069499;28;20052;-72
2022/09/09 02:32:05;;;;;;;5.57;4.25;;;;;;;25.92;43.29;100673.66;5044159;28;20111;-73
2022/09/09 02:34:36;;;;;;;9.68;4.72;;;;;;;26.34;42.62;100673.97;5062013;28;20013;-71
2022/09/09 02:37:03;;;;;;;12.35;4.38;;;;;;;25.72;43.88;100669.84;5053440;28;20109;-73
2022/09/09 02:39:29;;;;;;;9.45;4.53;;;;;;;26.00;43.38;100665.03;5032490;28;20390;-73
2022/09/09 02:41:54;;;;;;;8.70;4.80;;;;;;;26.31;42.56;100657.28;5033837;28;20024;-71
2022/09/09 02:44:20;;;;;;;9.73;5.45;;;;;;;26.20;42.65;100660.81;5062989;28;20028;-73
2022/09/09 02:47:20;;;;;;;11.23;5.13;;;;;;;26.17;42.70;100650.34;5054947;28;20040;-72
2022/09/09 02:50:20;;;;;;;10.07;4.97;;;;;;;25.50;44.42;100652.75;5005881;28;20446;-73
2022/09/09 02:53:07;;;;;;;11.45;4.90;;;;;;;25.60;44.30;100662.75;5060758;28;20028;-73
2022/09/09 02:55:45;;;;;;;11.15;4.45;;;;;;;25.96;42.93;100650.19;5065535;28;20024;-72
2022/09/09 02:58:16;;;;;;;10.75;4.85;;;;;;;25.95;43.04;100652.00;5053698;28;20442;-73
2022/09/09 03:00:43;;;;;;;11.50;5.43;;;;;;;25.26;44.44;100655.41;5070213;28;20036;-73
2022/09/09 03:03:09;;;;;;;13.88;5.25;;;;;;;25.28;44.28;100656.16;5062145;28;20477;-73
2022/09/09 03:05:35;;;;;;;7.13;4.57;;;;;;;25.75;43.55;100661.59;5033349;28;20083;-73
2022/09/09 03:08:02;;;;;;;11.18;5.28;;;;;;;25.57;43.84;100658.50;5052359;28;20032;-73
2022/09/09 03:10:27;;;;;;;10.25;4.68;;;;;;;25.39;44.23;100650.88;5064851;28;20059;-72
2022/09/09 03:12:52;;;;;;;8.13;5.35;;;;;;;25.27;44.73;100659.81;5037032;28;20027;-74
2022/09/09 03:15:18;;;;;;;10.93;6.18;;;;;;;25.37;44.05;100658.16;5051438;28;20086;-72
2022/09/09 03:17:43;;;;;;;8.77;5.05;;;;;;;25.59;44.08;100650.34;5060715;28;20473;-72
2022/09/09 03:20:09;;;;;;;11.73;5.75;;;;;;;25.33;43.95;100655.84;5035913;28;20031;-73
2022/09/09 03:22:35;;;;;;;11.45;5.85;;;;;;;24.96;45.22;100653.19;5035949;28;20029;-73
2022/09/09 03:25:02;;;;;;;11.13;5.68;;;;;;;25.49;43.78;100651.03;5037042;28;20112;-73
2022/09/09 03:27:28;;;;;;;8.98;5.80;;;;;;;25.28;44.37;100653.50;5042222;28;20020;-72
2022/09/09 03:29:53;;;;;;;9.52;5.70;;;;;;;25.89;42.91;100653.31;5051688;28;20065;-73
2022/09/09 03:32:19;;;;;;;12.93;5.03;;;;;;;25.89;42.91;100660.50;5048864;28;20100;-73
2022/09/09 03:34:47;;;;;;;9.77;5.85;;;;;;;25.43;44.00;100646.16;5046430;28;20021;-72
2022/09/09 03:37:12;;;;;;;9.15;5.40;;;;;;;25.71;43.50;100654.75;5045334;28;20838;-73
2022/09/09 03:39:38;;;;;;;12.05;5.38;;;;;;;25.48;44.04;100652.00;5060154;28;20041;-73
2022/09/09 03:42:03;;;;;;;12.52;6.90;;;;;;;25.63;43.59;100647.31;5034501;28;20223;-72
2022/09/09 03:44:30;;;;;;;10.07;5.15;;;;;;;24.88;45.24;100646.59;5042516;28;20033;-72
2022/09/09 03:46:56;;;;;;;9.88;5.65;;;;;;;25.40;43.78;100644.56;5054554;28;20044;-73
2022/09/09 03:49:22;;;;;;;9.68;5.05;;;;;;;25.37;43.99;100657.31;5067797;28;20039;-72
2022/09/09 03:51:47;;;;;;;10.88;5.20;;;;;;;25.55;43.35;100655.94;5038495;28;20389;-72
2022/09/09 03:54:12;;;;;;;8.13;4.50;;;;;;;25.88;42.69;100650.78;5065140;28;20029;-73
2022/09/09 03:56:38;;;;;;;10.48;4.70;;;;;;;24.95;44.63;100654.16;5032802;28;20029;-73
2022/09/09 03:59:04;;;;;;;8.50;4.30;;;;;;;25.03;44.99;100651.78;5033182;28;20111;-72
2022/09/09 04:01:29;;;;;;;9.48;4.97;;;;;;;25.46;43.51;100651.28;5061277;28;20028;-73
2022/09/09 04:03:57;;;;;;;12.80;4.25;;;;;;;25.05;44.27;100642.69;5068159;28;20032;-73
2022/09/09 04:06:24;;;;;;;8.93;3.95;;;;;;;25.29;43.64;100644.47;5068987;28;20025;-73
2022/09/09 04:08:50;;;;;;;8.27;5.57;;;;;;;25.60;42.96;100641.34;5044640;28;20028;-73
2022/09/09 04:11:16;;;;;;;10.18;4.50;;;;;;;25.34;43.95;100636.16;5067089;28;20020;-73
2022/09/09 04:13:42;;;;;;;8.77;3.63;;;;;;;25.07;44.64;100634.53;5059736;28;20119;-73
2022/09/09 04:16:10;;;;;;;7.57;3.88;;;;;;;25.37;43.71;100631.41;5067656;28;20125;-73
2022/09/09 04:18:35;;;;;;;7.53;3.28;;;;;;;24.75;44.79;100634.25;5040294;28;20070;-72
2022/09/09 04:21:01;;;;;;;4.85;3.20;;;;;;;25.20;43.99;100627.31;5051102;28;20028;-73
2022/09/09 04:23:30;;;;;;;6.60;2.88;;;;;;;25.10;44.02;100629.00;5058564;28;20473;-73
2022/09/09 04:25:57;;;;;;;4.53;2.90;;;;;;;25.24;43.54;100623.44;5066461;28;20035;-73
2022/09/09 04:28:24;;;;;;;6.72;2.80;;;;;;;24.81;44.79;100618.63;5054713;28;20028;-73
2022/09/09 04:30:50;;;;;;;9.32;3.67;;;;;;;24.94;44.12;100618.56;5065650;28;20415;-73
2022/09/09 04:33:17;;;;;;;5.32;2.97;;;;;;;25.14;43.89;100625.13;5067483;28;20029;-73
2022/09/09 04:35:48;;;;;;;4.43;2.40;;;;;;;25.10;44.21;100618.28;5033598;28;20108;-72
2022/09/09 04:38:13;;;;;;;4.38;2.88;;;;;;;24.90;44.44;100623.28;5055810;28;20139;-72
2022/09/09 04:40:42;;;;;;;9.73;3.28;;;;;;;25.09;44.28;100621.94;5064921;28;20477;-73
2022/09/09 04:43:09;;;;;;;8.98;3.03;;;;;;;24.52;45.14;100618.91;5029586;28;20060;-73
2022/09/09 04:45:34;;;;;;;6.53;3.13;;;;;;;24.16;46.14;100617.03;5063404;28;20108;-73
2022/09/09 04:48:00;;;;;;;5.53;2.70;;;;;;;23.98;46.77;100601.34;5058343;28;20127;-72
2022/09/09 04:50:25;;;;;;;7.43;3.40;;;;;;;24.77;44.92;100605.59;5085237;28;20171;-72
2022/09/09 04:52:51;;;;;;;9.02;3.22;;;;;;;24.95;44.46;100614.06;5055419;28;20020;-73
2022/09/09 04:55:16;;;;;;;8.38;3.05;;;;;;;25.26;43.73;100611.78;5090099;28;20102;-73
2022/09/09 04:57:41;;;;;;;9.13;2.80;;;;;;;24.79;45.25;100604.50;5089948;28;20047;-72
2022/09/09 05:00:07;;;;;;;5.03;3.17;;;;;;;25.14;43.73;100603.72;5090630;28;20020;-72
2022/09/09 05:02:37;;;;;;;8.23;2.90;;;;;;;24.90;44.68;100611.75;5072082;28;20111;-72
2022/09/09 05:05:03;;;;;;;6.97;3.10;;;;;;;24.47;45.17;100599.69;5081386;28;20484;-73
2022/09/09 05:07:28;;;;;;;9.38;3.03;;;;;;;24.78;44.91;100612.66;5061595;28;20040;-73
2022/09/09 05:09:54;;;;;;;5.00;2.92;;;;;;;24.70;45.18;100606.06;5061347;28;20028;-72
2022/09/09 05:12:19;;;;;;;6.15;2.90;;;;;;;24.69;45.96;100603.50;5089076;28;20383;-72
2022/09/09 05:14:45;;;;;;;5.13;2.78;;;;;;;25.11;44.77;100603.09;5077411;28;20025;-73
2022/09/09 05:17:10;;;;;;;7.60;3.20;;;;;;;24.91;44.76;100597.41;5067232;28;20020;-73
2022/09/09 05:19:36;;;;;;;5.55;2.78;;;;;;;24.87;45.11;100604.81;5094601;28;20020;-73
2022/09/09 05:22:02;;;;;;;7.55;2.90;;;;;;;25.59;43.71;100596.84;5062231;28;20388;-72
2022/09/09 05:24:27;;;;;;;8.88;3.25;;;;;;;25.47;43.92;100604.84;5057415;28;20024;-73
2022/09/09 05:26:52;;;;;;;9.45;3.05;;;;;;;24.01;47.64;100597.63;5074076;28;20025;-73
2022/09/09 05:29:19;;;;;;;9.60;2.80;;;;;;;24.79;46.11;100593.81;5073105;28;20039;-72
2022/09/09 05:31:47;;;;;;;8.35;3.50;;;;;;;24.48;45.76;100590.72;5073931;28;20476;-73
2022/09/09 05:34:12;;;;;;;11.18;2.97;;;;;;;25.10;45.11;100591.56;5079580;28;20020;-73
2022/09/09 05:36:38;;;;;;;8.02;2.90;;;;;;;23.82;47.57;100596.22;5055983;28;20549;-72
2022/09/09 05:39:04;;;;;;;6.70;2.78;;;;;;;23.85;48.65;100601.34;5068738;28;20035;-72
2022/09/09 05:41:30;;;;;;;12.68;3.95;;;;;;;23.58;50.10;100600.56;5070083;28;20025;-72
2022/09/09 05:43:55;;;;;;;7.85;2.38;;;;;;;23.81;48.71;100605.19;5082255;28;20028;-73
2022/09/09 05:46:23;;;;;;;10.43;3.05;;;;;;;24.24;48.63;100597.81;5093881;28;20084;-73
2022/09/09 05:48:51;;;;;;;9.52;3.00;;;;;;;24.61;47.62;100596.03;5067919;28;20039;-73
2022/09/09 05:51:26;;;;;;;10.10;2.85;;;;;;;24.76;47.82;100595.84;5034997;28;20025;-71
2022/09/09 05:53:52;;;;;;;8.30;2.60;;;;;;;24.68;48.47;100602.63;5034927;28;20477;-71
2022/09/09 05:56:23;;;;;;;9.52;3.10;;;;;;;23.52;50.44;100612.50;5056844;28;20029;-71
2022/09/09 05:58:49;;;;;;;9.90;2.90;;;;;;;24.87;48.11;100602.13;5044696;28;20623;-72
2022/09/09 06:01:16;;;;;;;6.65;2.42;;;;;;;25.66;45.55;100612.28;5033051;28;20025;-71
2022/09/09 06:03:43;;;;;;;10.25;2.40;;;;;;;24.37;49.37;100607.50;5034842;28;20028;-71
2022/09/09 06:06:15;;;;;;;7.78;2.35;;;;;;;24.73;48.40;100604.97;5035820;28;20025;-71
2022/09/09 06:08:44;;;;;;;13.15;2.25;;;;;;;25.26;46.34;100607.28;5035585;28;20401;-72
2022/09/09 06:11:15;;;;;;;9.20;2.10;;;;;;;25.40;45.35;100600.91;5039431;28;20067;-71
2022/09/09 06:13:41;;;;;;;10.45;2.35;;;;;;;25.14;46.63;100608.19;5035747;28;20024;-71
2022/09/09 06:16:11;;;;;;;7.45;2.00;;;;;;;24.59;48.22;100608.59;5054336;28;20020;-71
2022/09/09 06:18:37;;;;;;;6.43;2.10;;;;;;;25.41;46.78;100605.28;5070427;28;20070;-72
2022/09/09 06:21:06;;;;;;;8.95;2.08;;;;;;;25.01;46.51;100598.44;5062859;28;20028;-71
2022/09/09 06:23:32;;;;;;;6.78;2.55;;;;;;;24.30;49.72;100606.22;5052330;28;20032;-71
2022/09/09 06:26:05;;;;;;;12.00;3.00;;;;;;;24.78;47.23;100608.16;5033929;28;20472;-71
2022/09/09 06:28:31;;;;;;;9.75;2.00;;;;;;;24.63;48.64;100606.59;5037741;28;20021;-71
2022/09/09 06:30:59;;;;;;;8.20;2.13;;;;;;;23.62;52.19;100612.75;5063022;28;20112;-71
2022/09/09 06:33:24;;;;;;;6.30;2.28;;;;;;;24.28;48.47;100600.16;5040625;28;20071;-71
2022/09/09 06:35:54;;;;;;;7.70;2.42;;;;;;;24.89;47.43;100605.56;5059686;28;20024;-71
2022/09/09 06:38:21;;;;;;;9.60;2.80;;;;;;;24.90;48.20;100607.25;5071703;28;20024;-71
2022/09/09 06:40:58;;;;;;;6.18;2.20;;;;;;;25.22;48.07;100605.81;5053318;28;20028;-71
2022/09/09 06:43:24;;;;;;;8.20;2.30;;;;;;;25.99;45.46;100599.06;5047713;28;20035;-71
2022/09/09 06:45:57;;;;;;;11.73;3.10;;;;;;;23.98;50.18;100613.84;5061854;28;20025;-71
2022/09/09 06:48:22;;;;;;;;;;;;;;;24.29;49.38;100611.66;5035223;28;20549;-72
2022/09/09 06:50:49;;;;;;;6.97;2.38;;;;;;;24.43;49.92;100608.88;5067027;28;20014;-72
2022/09/09 06:53:18;;;;;;;12.10;3.17;;;;;;;24.27;50.65;100610.94;5055282;28;20417;-71
2022/09/09 06:55:45;;;;;;;12.07;3.35;;;;;;;23.79;51.32;100620.41;5052990;28;20025;-71
2022/09/09 06:58:10;;;;;;;10.93;4.45;;;;;;;24.62;49.30;100607.56;5035842;28;20021;-71
2022/09/09 07:00:38;;;;;;;13.60;4.30;;;;;;;23.69;52.02;100624.69;5042405;28;20035;-71
2022/09/09 07:03:05;;;;;;;12.35;3.75;;;;;;;23.44;52.32;100621.03;5070834;28;20496;-71
2022/09/09 07:05:30;;;;;;;7.97;3.50;;;;;;;23.99;51.22;100612.91;5070942;28;20116;-72
2022/09/09 07:07:55;;;;;;;11.68;3.95;;;;;;;23.53;51.84;100615.09;5069936;28;20107;-71
2022/09/09 07:10:21;;;;;;;14.65;3.67;;;;;;;23.96;51.33;100605.09;5070236;28;20017;-71
2022/09/09 07:12:51;;;;;;;10.10;3.20;;;;;;;23.87;51.87;100611.91;5049906;28;20031;-72
2022/09/09 07:15:18;;;;;;;11.95;4.03;;;;;;;23.83;52.50;100619.25;5052159;28;20081;-71
2022/09/09 07:17:44;;;;;;;8.98;3.55;;;;;;;24.68;50.67;100612.47;5054397;28;20106;-71
2022/09/09 07:20:09;;;;;;;8.05;3.20;;;;;;;24.47;50.66;100609.50;5070302;28;20028;-72
2022/09/09 07:22:35;;;;;;;12.35;3.63;;;;;;;25.72;46.70;100606.47;5071821;28;20357;-71
2022/09/09 07:25:02;;;;;;;12.75;4.15;;;;;;;24.91;48.33;100605.44;5060661;28;20033;-71
2022/09/09 07:27:27;;;;;;;12.52;4.00;;;;;;;25.68;46.88;100612.19;5065130;28;20024;-71
2022/09/09 07:29:54;;;;;;;8.57;3.53;;;;;;;26.20;45.81;100605.44;5050264;28;20035;-71
2022/09/09 07:32:20;;;;;;;9.60;4.40;;;;;;;26.47;44.67;100608.69;5054302;28;20051;-72
2022/09/09 07:34:46;;;;;;;7.15;3.22;;;;;;;26.47;45.01;100609.53;5061576;28;20465;-71
2022/09/09 07:37:13;;;;;;;9.43;3.65;;;;;;;25.78;45.94;100613.16;5052935;28;20366;-71
2022/09/09 07:39:39;;;;;;;9.20;3.80;;;;;;;25.46;46.29;100607.59;5066097;28;20063;-71
2022/09/09 07:42:05;;;;;;;11.98;4.43;;;;;;;25.49;46.76;100608.22;5053044;28;20016;-71
2022/09/09 07:44:34;;;;;;;10.18;4.05;;;;;;;24.83;47.97;100606.00;5071847;28;20067;-70
2022/09/09 07:47:00;;;;;;;8.63;3.80;;;;;;;25.77;46.18;100607.94;5068680;28;20040;-71
2022/09/09 07:49:25;;;;;;;10.90;4.35;;;;;;;26.54;44.05;100608.09;5050341;28;20051;-70
2022/09/09 07:51:51;;;;;;;12.70;4.13;;;;;;;26.22;44.47;100616.03;5061514;28;20059;-71
2022/09/09 07:54:23;;;;;;;8.73;3.72;;;;;;;25.64;45.25;100616.06;5053956;28;20469;-71
2022/09/09 07:56:49;;;;;;;12.15;4.32;;;;;;;24.96;47.42;100615.78;5068650;28;20040;-71
2022/09/09 07:59:15;;;;;;;12.45;3.67;;;;;;;24.57;47.86;100610.53;5071242;28;20033;-71
2022/09/09 08:01:43;;;;;;;8.43;3.83;;;;;;;25.39;47.16;100612.59;5034989;28;20037;-71
2022/09/09 08:04:15;;;;;;;8.93;3.78;;;;;;;24.59;47.81;100607.75;5070849;28;20039;-71
2022/09/09 08:06:46;;;;;;;10.80;3.72;;;;;;;25.20;47.18;100613.94;5070613;28;20036;-71
2022/09/09 08:09:12;;;;;;;12.20;4.57;;;;;;;25.52;46.70;100617.84;5053679;28;20028;-71
2022/09/09 08:11:39;;;;;;;10.32;4.47;;;;;;;25.50;45.67;100619.78;5050120;28;20027;-71
2022/09/09 08:14:07;;;;;;;10.10;3.80;;;;;;;25.63;46.39;100617.03;5053467;28;20031;-72
2022/09/09 08:16:36;;;;;;;10.00;4.68;;;;;;;24.82;47.08;100617.66;5070460;28;20032;-72
2022/09/09 08:19:02;;;;;;;11.65;3.67;;;;;;;25.75;45.28;100618.75;5050064;28;20060;-71
2022/09/09 08:21:30;;;;;;;14.45;3.70;;;;;;;26.71;42.91;100611.25;5068491;28;20033;-71
2022/09/09 08:23:56;;;;;;;8.50;3.10;;;;;;;25.78;45.08;100623.03;5052648;28;20037;-72
2022/09/09 08:26:27;;;;;;;9.07;3.38;;;;;;;26.78;43.00;100616.94;5036473;28;20086;-71
2022/09/09 08:28:56;;;;;;;10.35;3.50;;;;;;;27.31;41.92;100618.81;5059128;28;20084;-71
2022/09/09 08:31:30;;;;;;;8.13;2.97;;;;;;;27.03;42.18;100626.50;5061504;28;20025;-71
2022/09/09 08:33:59;;;;;;;6.25;2.90;;;;;;;26.49;43.15;100621.00;5058859;28;20028;-71
2022/09/09 08:36:28;;;;;;;11.77;4.07;;;;;;;26.70;43.13;100615.75;5056424;28;20133;-72
2022/09/09 08:38:56;;;;;;;9.43;3.72;;;;;;;26.07;43.50;100618.09;5065515;28;20036;-71
2022/09/09 08:41:41;;;;;;;11.05;2.75;;;;;;;25.15;46.40;100629.47;5057174;28;20420;-71
2022/09/09 08:44:50;;;;;;;13.55;3.53;;;;;;;25.34;45.81;100634.31;5061204;28;20032;-71
2022/09/09 08:47:34;;;;;;;10.05;3.60;;;;;;;26.16;44.81;100622.72;5042751;28;20047;-71
2022/09/09 08:50:35;;;;;;;8.15;3.22;;;;;;;26.21;44.45;100628.56;5073101;28;20128;-71
2022/09/09 08:53:21;;;;;;;14.48;3.10;;;;;;;25.44;46.17;100631.81;5066296;28;20551;-71
2022/09/09 08:55:51;;;;;;;10.70;2.75;;;;;;;25.04;46.24;100640.13;5082632;28;20558;-72
2022/09/09 08:58:22;;;;;;;8.82;2.58;;;;;;;26.12;44.55;100628.44;5061794;28;20045;-71
2022/09/09 09:01:08;;;;;;;11.85;3.13;;;;;;;27.02;42.75;100630.16;5083201;28;20113;-72
2022/09/09 09:03:52;;;;;;;8.55;2.75;;;;;;;26.01;45.11;100631.94;5081462;28;20035;-72
2022/09/09 09:06:27;;;;;;;8.75;3.15;;;;;;;26.75;43.38;100634.16;5065331;28;20035;-71
2022/09/09 09:09:20;;;;;;;6.18;2.53;;;;;;;26.75;43.82;100632.31;5075594;28;20040;-71
2022/09/09 09:11:56;;;;;;;10.55;3.53;;;;;;;25.53;46.12;100641.81;5074204;28;20052;-71
2022/09/09 09:14:24;;;;;;;7.78;2.95;;;;;;;26.88;43.49;100634.81;5074231;28;20024;-72
2022/09/09 09:16:52;;;;;;;6.45;3.13;;;;;;;26.89;43.71;100641.91;5092391;28;20032;-71
2022/09/09 09:19:18;;;;;;;12.50;3.65;;;;;;;25.64;45.99;100645.50;5089645;28;20020;-71
2022/09/09 09:21:48;;;;;;;9.13;2.80;;;;;;;26.47;43.76;100644.38;5059291;28;20036;-71
2022/09/09 09:24:32;;;;;;;15.20;2.80;;;;;;;26.45;44.33;100642.78;5085944;28;20028;-72
2022/09/09 09:27:04;;;;;;;8.82;3.03;;;;;;;26.72;44.12;100645.09;5077490;28;20395;-71
2022/09/09 09:29:29;;;;;;;10.43;2.95;;;;;;;25.10;47.74;100646.84;5066801;28;20580;-71
2022/09/09 09:32:01;;;;;;;13.10;3.75;;;;;;;26.15;46.57;100642.44;5092126;28;20031;-71
2022/09/09 09:34:28;;;;;;;13.50;3.15;;;;;;;25.65;47.90;100641.84;5075212;28;20078;-70
2022/09/09 09:36:57;;;;;;;16.95;4.53;;;;;;;26.49;45.33;100636.22;5080938;28;20507;-72
2022/09/09 09:39:31;;;;;;;9.52;2.88;;;;;;;25.69;47.39;100636.16;5060786;28;20048;-71
2022/09/09 09:42:01;;;;;;;13.88;3.17;;;;;;;25.56;47.71;100630.88;5080983;28;20078;-71
2022/09/09 09:44:29;;;;;;;10.65;3.38;;;;;;;25.29;47.90;100627.59;5075831;28;20021;-71
2022/09/09 09:47:12;;;;;;;12.02;3.33;;;;;;;26.34;46.14;100619.56;5078607;28;20049;-73
2022/09/09 09:49:39;;;;;;;14.32;3.83;;;;;;;26.26;47.03;100622.00;5059096;28;20024;-71
2022/09/09 09:52:06;;;;;;;11.90;3.42;;;;;;;26.95;45.91;100623.59;5058566;28;20032;-72
2022/09/09 09:54:37;;;;;;;8.40;3.28;;;;;;;27.08;45.45;100619.78;5036985;28;20518;-72
2022/09/09 09:57:11;;;;;;;9.13;2.90;;;;;;;27.12;45.62;100619.50;5062606;28;20032;-72
2022/09/09 09:59:39;;;;;;;13.38;3.45;;;;;;;26.61;45.82;100613.78;5042803;28;20469;-71
2022/09/09 10:02:26;;;;;;;8.05;3.00;;;;;;;27.09;44.29;100616.13;5035018;28;20036;-71
2022/09/09 10:05:12;;;;;;;10.45;2.28;;;;;;;27.51;43.54;100615.34;5053791;28;20032;-72
2022/09/09 10:07:38;;;;;;;10.20;2.53;;;;;;;26.28;45.82;100614.69;5043867;28;20031;-71
2022/09/09 10:10:08;;;;;;;9.20;2.20;;;;;;;27.84;43.23;100616.09;5032861;28;20031;-71
2022/09/09 10:13:00;;;;;;;10.32;2.40;;;;;;;26.49;45.47;100612.97;5053041;28;20036;-71
2022/09/09 10:15:46;;;;;;;8.32;1.80;;;;;;;26.28;45.54;100618.19;5056198;28;20099;-71
2022/09/09 10:18:46;;;;;;;9.05;2.25;;;;;;;26.41;45.65;100621.59;5046416;28;20427;-71
2022/09/09 10:21:42;;;;;;;8.32;2.22;;;;;;;25.40;47.36;100622.31;5036572;28;20025;-71
2022/09/09 10:24:27;;;;;;;6.90;2.10;;;;;;;26.29;45.94;100621.75;5063200;28;20028;-71
2022/09/09 10:27:06;;;;;;;9.25;1.83;;;;;;;24.80;50.04;100627.59;5042040;28;20146;-70
2022/09/09 10:29:32;;;;;;;4.93;2.25;;;;;;;24.90;50.15;100627.78;5057322;28;20508;-71
2022/09/09 10:32:22;;;;;;;11.48;2.60;;;;;;;26.12;47.08;100626.63;5051579;28;20024;-71
2022/09/09 10:35:00;;;;;;;6.55;2.55;;;;;;;24.81;50.07;100634.66;5034955;28;20068;-71
2022/09/09 10:37:57;;;;;;;5.68;1.90;;;;;;;25.03;49.85;100631.25;5048764;28;20029;-71
2022/09/09 10:40:42;;;;;;;8.30;1.90;;;;;;;25.11;49.86;100630.66;5053756;28;20536;-71
2022/09/09 10:43:45;;;;;;;6.13;1.90;;;;;;;23.97;53.41;100638.81;5034920;28;20036;-71
2022/09/09 10:46:29;;;;;;;6.65;2.53;;;;;;;25.04;50.82;100629.44;5062755;28;20091;-71
2022/09/09 10:49:18;;;;;;;7.68;2.10;;;;;;;25.78;49.54;100634.56;5052433;28;20041;-70
2022/09/09 10:51:49;;;;;;;5.57;2.58;;;;;;;26.88;46.57;100631.31;5051983;28;20099;-70
2022/09/09 10:54:23;;;;;;;6.75;2.45;;;;;;;26.51;47.23;100629.75;5062744;28;20075;-70
2022/09/09 10:56:56;;;;;;;8.75;2.40;;;;;;;25.30;49.87;100626.63;5068702;28;20548;-71
2022/09/09 10:59:26;;;;;;;4.18;2.03;;;;;;;25.19;49.15;100628.28;5055362;28;20068;-71
2022/09/09 11:02:06;;;;;;;8.32;2.13;;;;;;;25.36;49.49;100618.16;5047543;28;20025;-70
2022/09/09 11:04:40;;;;;;;4.93;2.03;;;;;;;25.19;51.07;100617.56;5064397;28;20102;-71
2022/09/09 11:07:13;;;;;;;6.63;2.30;;;;;;;25.69;50.19;100620.09;5057187;28;20373;-71
2022/09/09 11:09:45;;;;;;;7.13;2.08;;;;;;;25.67;48.58;100622.03;5070446;28;20637;-71
2022/09/09 11:12:19;;;;;;;6.97;2.50;;;;;;;25.35;48.97;100611.97;5069546;28;20082;-71
2022/09/09 11:14:56;;;;;;;9.55;3.05;;;;;;;26.55;47.28;100616.97;5057455;28;20049;-71
2022/09/09 11:17:29;;;;;;;7.60;2.60;;;;;;;27.31;45.07;100618.81;5050589;28;20029;-71
2022/09/09 11:19:55;;;;;;;5.50;1.60;;;;;;;26.54;45.84;100621.50;5051630;28;20212;-71
2022/09/09 11:22:38;;;;;;;7.93;2.38;;;;;;;25.71;46.64;100622.66;5051750;28;20479;-71
2022/09/09 11:25:13;;;;;;;5.53;2.20;;;;;;;25.59;47.46;100618.25;5051016;28;20021;-72
2022/09/09 11:28:02;;;;;;;5.30;2.25;;;;;;;26.00;46.44;100627.56;5049317;28;20041;-71
2022/09/09 11:31:02;;;;;;;4.53;2.28;;;;;;;26.36;46.15;100628.31;5063174;28;20126;-71
2022/09/09 11:33:44;;;;;;;5.25;2.55;;;;;;;26.40;46.12;100629.78;5053934;28;20087;-71
2022/09/09 11:36:28;;;;;;;5.10;2.40;;;;;;;26.63;46.31;100635.13;5051418;28;20497;-72
2022/09/09 11:39:14;;;;;;;8.50;2.58;;;;;;;26.47;47.75;100630.97;5050703;28;20072;-72
2022/09/09 11:41:40;;;;;;;7.97;4.22;;;;;;;26.69;46.09;100618.53;5051451;28;20024;-72
2022/09/09 11:44:17;;;;;;;6.40;2.55;;;;;;;26.62;45.87;100628.03;5070671;28;20063;-71